Strona główna
METAR-TAF:

METAR-TAF

Lotnisko :

Washington, Pensylwania, Stany Zjednoczone

Szerokość geograficzna: 40-08N, Długość geograficzna: 080-17W, wysokość: 361 m

Aktualna obserwacja pogody

Raport powstał 21 minut temu, godzina 21:56 UTC
Wiatr 5 kt od południe
Temperatura 10°C
Wilgotność 62%
Ciśnienie 1021 hPa
Widzialność: 16.1 km
Mało chmury na wysokości 3900 ft
Zachmurzenie całkowite na wysokości 6500 ft

METAR: KAFJ 082156Z AUTO 18005KT 10SM FEW039 OVC065 10/03 A3015 RMK AO2 SLP218 T01000028 PWINO $

czas: 17:17 (22:17 UTC)


TAF: brakujący

Obserwacja i prognoza pogody dla ponad 4000 lotnisk (raport METAR i TAF).

Dostępne stacje oznaczono żółtymi i czerwonymi punktami na mapie.

Najedź kursorem aby zobaczyć nazwę stacji.

Kliknij aby zobaczyć obserwacje i prognozy pogody.

Aby zmienić mapę: kliknij na zielony przycisk z czarnym krzyżykiem, aby powiększyć; na zielony przycisk z myślnikiem, aby pomniejszyć; na zielone strzałki, aby przejść do map sąsiednich.


METAR-TAF: